Terminal Aerodrome Forecast
Issued by NWS

Home | Current Version | Previous Version | Text Only | Print | Product List | Glossary On
Versions: 1 2 3 4 5 6 7 8 9 10 11 12 13 14 15 16 17 18 19 20 21 22 23 24 25 26 27 28 29 30 31 32 33 34
000
FTUS45 KBOI 110202 AAA
TAFBKE
TAF AMD
KBKE 110202Z 1102/1124 VRB03KT 3/4SM BR OVC005
     FM111800 13009KT P6SM FEW020 OVC040=

USA.gov is the U.S. government's official web portal to all federal, state and local government web resources and services.